| time (UTC) | temp F | wind direction | speed MPH | gust MPH | rain 1hr in | rain 24hr in | rain mn in | humidity % | barometer mb |
| 20260505075207 | 55 | 155 | 0.0 | 0.0 | 0.00 | 0.00 | 0.00 | 80 | 1021.3 |
| 20260505074708 | 55 | 155 | 0.0 | 0.0 | 0.00 | 0.00 | 0.00 | 79 | 1021.3 |
| 20260505074207 | 55 | 155 | 0.0 | 0.0 | 0.00 | 0.00 | 0.00 | 79 | 1021.3 |
| 20260505073706 | 55 | 155 | 0.0 | 1.0 | 0.00 | 0.00 | 0.00 | 77 | 1021.3 |
| 20260505072207 | 56 | 154 | 0.0 | 0.0 | 0.00 | 0.00 | 0.00 | 76 | 1021.3 |
| 20260505071707 | 56 | 154 | 0.0 | 0.0 | 0.00 | 0.00 | 0.00 | 76 | 1021.3 |
| 20260505070706 | 57 | 154 | 0.0 | 0.0 | 0.00 | 0.00 | 0.00 | 75 | 1021.3 |
| 20260505070206 | 57 | 154 | 0.0 | 0.0 | 0.00 | 0.00 | 0.00 | 75 | 1021.3 |
| 20260505065708 | 57 | 154 | 0.0 | 0.0 | 0.00 | 0.00 | 0.00 | 75 | 1021.3 |
| 20260505065208 | 57 | 154 | 0.0 | 0.0 | 0.00 | 0.00 | 0.00 | 75 | 1021.3 |
| 20260505064705 | 57 | 154 | 0.0 | 0.0 | 0.00 | 0.00 | 0.00 | 75 | 1021.3 |
| 20260505064207 | 58 | 154 | 1.0 | 1.0 | 0.00 | 0.00 | 0.00 | 76 | 1021.3 |
| 20260505063707 | 58 | 153 | 1.0 | 1.0 | 0.00 | 0.00 | 0.00 | 75 | 1021.3 |
| 20260505063207 | 58 | 153 | 1.0 | 2.0 | 0.00 | 0.00 | 0.00 | 75 | 1021.3 |
| 20260505062708 | 58 | 170 | 0.0 | 2.0 | 0.00 | 0.00 | 0.00 | 75 | 1021.3 |
| 20260505062206 | 58 | 174 | 0.0 | 2.0 | 0.00 | 0.00 | 0.00 | 75 | 1021.3 |
| 20260505061709 | 58 | 176 | 1.0 | 2.0 | 0.00 | 0.00 | 0.00 | 75 | 1021.3 |
| 20260505061206 | 58 | 174 | 1.0 | 3.0 | 0.00 | 0.00 | 0.00 | 75 | 1021.3 |
| 20260505060706 | 58 | 170 | 1.0 | 3.0 | 0.00 | 0.00 | 0.00 | 74 | 1021.3 |
| 20260505060210 | 58 | 184 | 1.0 | 3.0 | 0.00 | 0.00 | 0.00 | 74 | 1021.3 |
| 20260505055707 | 58 | 187 | 2.0 | 3.0 | 0.00 | 0.00 | 0.00 | 74 | 1021.3 |
| 20260505055207 | 58 | 188 | 1.0 | 3.0 | 0.00 | 0.00 | 0.00 | 73 | 1021.3 |
| 20260505054707 | 59 | 155 | 1.0 | 2.0 | 0.00 | 0.00 | 0.00 | 73 | 1021.3 |
| 20260505054206 | 59 | 190 | 1.0 | 2.0 | 0.00 | 0.00 | 0.00 | 73 | 1021.3 |
| 20260505053207 | 59 | 204 | 0.0 | 3.0 | 0.00 | 0.00 | 0.00 | 71 | 1021.3 |
| 20260505052706 | 59 | 208 | 0.0 | 2.0 | 0.00 | 0.00 | 0.00 | 71 | 1021.3 |
| 20260505051706 | 59 | 175 | 1.0 | 2.0 | 0.00 | 0.00 | 0.00 | 71 | 1021.3 |
| 20260505051209 | 59 | 182 | 1.0 | 3.0 | 0.00 | 0.00 | 0.00 | 71 | 1021.3 |
| 20260505050708 | 59 | 173 | 1.0 | 3.0 | 0.00 | 0.00 | 0.00 | 71 | 1021.3 |
| 20260505050208 | 59 | 184 | 2.0 | 3.0 | 0.00 | 0.00 | 0.00 | 71 | 1021.3 |
| 20260505041708 | 58 | 182 | 1.0 | 2.0 | 0.00 | 0.00 | 0.00 | 69 | 1021.3 |
| 20260505041206 | 58 | 186 | 1.0 | 2.0 | 0.00 | 0.00 | 0.00 | 69 | 1021.3 |
| 20260505040707 | 58 | 175 | 1.0 | 3.0 | 0.00 | 0.00 | 0.00 | 68 | 1021.3 |
| 20260505040207 | 58 | 211 | 1.0 | 2.0 | 0.00 | 0.00 | 0.00 | 68 | 1021.3 |
| 20260505035707 | 59 | 232 | 1.0 | 2.0 | 0.00 | 0.00 | 0.00 | 67 | 1021.3 |
| 20260505035207 | 59 | 177 | 1.0 | 2.0 | 0.00 | 0.00 | 0.00 | 67 | 1021.3 |
| 20260505034707 | 59 | 183 | 1.0 | 2.0 | 0.00 | 0.00 | 0.00 | 67 | 1021.3 |
| 20260505034208 | 59 | 182 | 1.0 | 2.0 | 0.00 | 0.00 | 0.00 | 67 | 1021.3 |
| 20260505033708 | 59 | 179 | 1.0 | 2.0 | 0.00 | 0.00 | 0.00 | 66 | 1021.3 |
| 20260505032710 | 59 | 207 | 2.0 | 3.0 | 0.00 | 0.00 | 0.00 | 66 | 1021.3 |
| 20260505031712 | 59 | 181 | 1.0 | 1.0 | 0.00 | 0.00 | 0.00 | 65 | 1021.3 |
| 20260505030710 | 59 | 209 | 2.0 | 3.0 | 0.00 | 0.00 | 0.00 | 65 | 1021.3 |
| 20260505030206 | 59 | 204 | 2.0 | 3.0 | 0.00 | 0.00 | 0.00 | 65 | 1021.3 |
| 20260505025709 | 59 | 181 | 2.0 | 3.0 | 0.00 | 0.00 | 0.00 | 65 | 1021.3 |
| 20260505025211 | 59 | 185 | 1.0 | 3.0 | 0.00 | 0.00 | 0.00 | 65 | 1021.3 |
| 20260505024708 | 59 | 185 | 2.0 | 2.0 | 0.00 | 0.00 | 0.00 | 65 | 1021.3 |
| 20260505020206 | 60 | 173 | 1.0 | 3.0 | 0.00 | 0.00 | 0.00 | 63 | 1021.3 |
| 20260505015207 | 60 | 190 | 1.0 | 3.0 | 0.00 | 0.00 | 0.00 | 62 | 1021.3 |
| 20260505013219 | 61 | 198 | 1.0 | 3.0 | 0.00 | 0.00 | 0.00 | 60 | 1021.3 |
| 20260505012219 | 62 | 189 | 0.0 | 3.0 | 0.00 | 0.00 | 0.00 | 58 | 1021.3 |
| 20260505011210 | 62 | 177 | 0.0 | 1.0 | 0.00 | 0.00 | 0.00 | 56 | 1021.3 |
| 20260505010706 | 62 | 177 | 0.0 | 1.0 | 0.00 | 0.00 | 0.00 | 56 | 1021.3 |
| 20260505010215 | 63 | 183 | 1.0 | 2.0 | 0.00 | 0.00 | 0.00 | 54 | 1021.3 |
| 20260505003711 | 63 | 199 | 2.0 | 3.0 | 0.00 | 0.00 | 0.00 | 52 | 1021.3 |
| 20260505001717 | 64 | 186 | 1.0 | 3.0 | 0.00 | 0.00 | 0.00 | 49 | 1021.3 |
| 20260505000211 | 65 | 174 | 2.0 | 5.0 | 0.00 | 0.00 | 0.00 | 47 | 1021.3 |
| 20260504232218 | 68 | 184 | 2.0 | 7.0 | 0.00 | 0.00 | 0.00 | 45 | 1021.3 |
| 20260504224708 | 69 | 210 | 2.0 | 7.0 | 0.00 | 0.00 | 0.00 | 44 | 1021.3 |
| 20260504224207 | 69 | 195 | 1.0 | 3.0 | 0.00 | 0.00 | 0.00 | 44 | 1021.3 |
| 20260504223707 | 70 | 186 | 1.0 | 7.0 | 0.00 | 0.00 | 0.00 | 43 | 1021.3 |
| 20260504220713 | 71 | 171 | 2.0 | 3.0 | 0.00 | 0.00 | 0.00 | 42 | 1021.3 |
| 20260504215210 | 71 | 199 | 5.0 | 8.0 | 0.00 | 0.00 | 0.00 | 40 | 1021.3 |
| 20260504213715 | 74 | 191 | 3.0 | 8.0 | 0.00 | 0.00 | 0.00 | 38 | 1021.3 |
| 20260504212719 | 74 | 207 | 3.0 | 8.0 | 0.00 | 0.00 | 0.00 | 35 | 1021.3 |
| 20260504210712 | 74 | 218 | 2.0 | 7.0 | 0.00 | 0.00 | 0.00 | 29 | 1021.3 |
| 20260504210213 | 74 | 220 | 2.0 | 5.0 | 0.00 | 0.00 | 0.00 | 29 | 1021.3 |
| 20260504203716 | 74 | 218 | 2.0 | 6.0 | 0.00 | 0.00 | 0.00 | 29 | 1021.3 |
| 20260504202221 | 74 | 222 | 3.0 | 6.0 | 0.00 | 0.00 | 0.00 | 28 | 1021.3 |
| 20260504192218 | 76 | 244 | 2.0 | 5.0 | 0.00 | 0.00 | 0.00 | 27 | 1021.3 |
| 20260504190207 | 76 | 204 | 2.0 | 5.0 | 0.00 | 0.00 | 0.00 | 27 | 1021.3 |
| 20260504180209 | 75 | 238 | 2.0 | 6.0 | 0.00 | 0.00 | 0.00 | 29 | 1021.3 |
| 20260504175707 | 75 | 229 | 2.0 | 6.0 | 0.00 | 0.00 | 0.00 | 29 | 1021.3 |
| 20260504173706 | 74 | 239 | 3.0 | 5.0 | 0.00 | 0.00 | 0.00 | 29 | 1021.3 |
| 20260504150209 | 67 | 206 | 2.0 | 5.0 | 0.00 | 0.00 | 0.00 | 39 | 1021.3 |
| 20260504140206 | 65 | 225 | 5.0 | 10.0 | 0.00 | 0.00 | 0.00 | 40 | 1021.3 |
| 20260504120206 | 51 | 200 | 2.0 | 5.0 | 0.00 | 0.00 | 0.00 | 72 | 1021.3 |
| 20260504100217 | 46 | 202 | 2.0 | 3.0 | 0.00 | 0.00 | 0.00 | 70 | 1021.3 |
| 20260504080718 | 45 | 226 | 0.0 | 0.0 | 0.00 | 0.00 | 0.00 | 64 | 1021.3 |
| 20260504080208 | 45 | 226 | 0.0 | 0.0 | 0.00 | 0.00 | 0.00 | 64 | 1021.3 |